createdAt,value
2019-03-31T18:51:25.028Z,45.71
2019-03-31T18:54:07.977Z,45.69
2019-03-31T18:56:56.277Z,45.67
2019-03-31T18:59:45.013Z,45.68
2019-03-31T19:02:52.779Z,45.63
2019-03-31T19:05:38.734Z,45.59
2019-03-31T19:08:55.602Z,45.53
2019-03-31T19:12:00.456Z,45.51
2019-03-31T19:14:36.106Z,45.48
2019-03-31T19:17:42.500Z,45.42
2019-03-31T19:20:30.806Z,45.39
2019-03-31T19:23:24.433Z,45.32
2019-03-31T19:26:47.754Z,45.27
2019-03-31T19:29:39.279Z,45.26
2019-03-31T19:32:59.663Z,45.22
2019-03-31T19:35:37.116Z,44.95
2019-03-31T19:38:15.608Z,44.95
2019-03-31T19:41:15.424Z,45.12
2019-03-31T19:44:09.448Z,45.10
2019-03-31T19:46:55.974Z,45.10
2019-03-31T19:49:47.998Z,45.04
2019-03-31T19:52:55.602Z,45.01
2019-03-31T19:55:37.461Z,45.01
2019-03-31T19:59:03.329Z,45.02
2019-03-31T20:03:23.658Z,45.00
2019-03-31T20:07:44.962Z,45.06
2019-03-31T20:10:32.518Z,44.97
2019-03-31T20:13:20.450Z,44.97
2019-03-31T20:16:23.228Z,44.95
2019-03-31T20:19:39.169Z,44.93
2019-03-31T20:21:42.270Z,44.72
2019-03-31T20:24:23.144Z,44.72
2019-03-31T20:27:01.623Z,44.72
2019-03-31T20:30:02.771Z,44.82
2019-03-31T20:32:44.200Z,44.77
2019-03-31T20:35:27.380Z,44.70
2019-03-31T20:38:19.857Z,44.67
2019-03-31T20:41:03.209Z,44.64
2019-03-31T20:43:40.187Z,44.63
2019-03-31T20:46:10.562Z,44.62
2019-03-31T20:48:41.373Z,44.58
2019-03-31T20:51:12.194Z,44.54
2019-03-31T20:53:42.789Z,44.53
2019-03-31T20:56:13.262Z,44.52
2019-03-31T20:58:48.127Z,44.49
2019-03-31T21:01:20.415Z,44.48
2019-03-31T21:03:50.973Z,44.45
2019-03-31T21:06:23.761Z,44.44
2019-03-31T21:08:54.233Z,44.42
2019-03-31T21:11:24.580Z,44.42
2019-03-31T21:13:57.042Z,44.39
2019-03-31T21:16:27.179Z,44.41
2019-03-31T21:18:57.779Z,44.38
2019-03-31T21:21:28.317Z,44.37
2019-03-31T21:23:59.119Z,44.35
2019-03-31T21:26:29.969Z,44.36
2019-03-31T21:29:02.840Z,44.36
2019-03-31T21:31:33.359Z,44.35
2019-03-31T21:34:03.785Z,44.30
2019-03-31T21:36:52.649Z,44.31
2019-03-31T21:39:23.016Z,44.31
2019-03-31T21:41:53.511Z,44.30
2019-03-31T21:44:24.433Z,44.29
2019-03-31T21:47:00.919Z,44.29
2019-03-31T21:49:37.778Z,44.27
2019-03-31T21:52:08.248Z,44.27
2019-03-31T21:54:43.352Z,44.25
2019-03-31T21:57:14.086Z,44.25
2019-03-31T21:59:44.606Z,44.25
2019-03-31T22:02:14.911Z,44.25
2019-03-31T22:04:45.268Z,44.26
2019-03-31T22:07:17.883Z,44.28
2019-03-31T22:09:48.318Z,44.21
2019-03-31T22:12:18.797Z,44.21
2019-03-31T22:14:50.047Z,44.21
2019-03-31T22:17:20.498Z,44.19
2019-03-31T22:19:50.919Z,44.22
2019-03-31T22:22:21.492Z,44.21
2019-03-31T22:24:51.844Z,44.20
2019-03-31T22:27:23.793Z,44.18
2019-03-31T22:29:54.183Z,44.17
2019-03-31T22:32:24.557Z,44.16
2019-03-31T22:34:55.031Z,44.13
2019-03-31T22:37:25.433Z,44.13
2019-03-31T22:39:55.981Z,44.12
2019-03-31T22:42:26.382Z,44.13
2019-03-31T22:44:56.851Z,44.14
2019-03-31T22:47:27.305Z,44.12
2019-03-31T22:49:59.413Z,44.11
2019-03-31T22:52:29.897Z,44.10
2019-03-31T22:55:00.395Z,44.08
2019-03-31T22:57:30.686Z,44.08
2019-03-31T23:00:02.482Z,44.10
2019-03-31T23:02:32.822Z,44.07
2019-03-31T23:05:03.328Z,44.10
2019-03-31T23:07:33.771Z,44.09
2019-03-31T23:10:04.425Z,44.09
2019-03-31T23:12:34.830Z,44.09
2019-03-31T23:15:05.359Z,44.07
2019-03-31T23:17:54.446Z,44.05
2019-03-31T23:20:24.794Z,44.04
2019-03-31T23:22:55.252Z,44.05
2019-03-31T23:25:25.628Z,44.05
2019-03-31T23:27:56.003Z,44.05
2019-03-31T23:30:26.468Z,44.05
2019-03-31T23:32:56.861Z,44.03
2019-03-31T23:35:27.291Z,44.04
2019-03-31T23:37:57.674Z,44.04
2019-03-31T23:40:28.039Z,44.07
2019-03-31T23:42:59.485Z,44.07
2019-03-31T23:45:32.372Z,44.06
2019-03-31T23:48:01.890Z,44.08
2019-03-31T23:50:32.345Z,44.09
2019-03-31T23:53:02.714Z,44.08
2019-03-31T23:55:33.143Z,44.03
2019-03-31T23:58:03.520Z,44.03
